Meadowview, Virginia
Current Conditions -  °F | °C
As of 4:15 PM on Monday 22 Dec 2014 (Local Time) from KVJI Reporting Station
Clear Clear  
Wind Chill: 11°   Ceiling: Unl
Heat Index: 11°   Visibility: 10mi
Dew Point:   Wind: 18mph
Humidity: 67%   Direction: 90°E
Pressure: 29.9"   Gusts: 23mph
Location:  36.76°N, 81.86°W
Report Text: KVJI 222115Z AUTO 09016G20KT 10SM CLR 11/05 A2990 RMK AO2 T01090049
Loading
Personal Weather Stations






























Interactive Weather Map New forecast layout! Learn more

10-Day Weather Forecast

Advertisements
Track Severe Weather on mobile